sensor_id;sensor_type;location;lat;lon;timestamp;P1;durP1;ratioP1;P2;durP2;ratioP2
27113;SDS011;14648;49.730;8.614;2023-01-29T00:01:49;4.77;;;4.30;;
27113;SDS011;14648;49.730;8.614;2023-01-29T00:04:15;5.43;;;4.50;;
27113;SDS011;14648;49.730;8.614;2023-01-29T00:06:41;5.90;;;4.63;;
27113;SDS011;14648;49.730;8.614;2023-01-29T00:09:08;5.70;;;4.63;;
27113;SDS011;14648;49.730;8.614;2023-01-29T00:11:34;6.90;;;5.10;;
27113;SDS011;14648;49.730;8.614;2023-01-29T00:14:00;8.07;;;5.73;;
27113;SDS011;14648;49.730;8.614;2023-01-29T00:16:26;10.03;;;5.57;;
27113;SDS011;14648;49.730;8.614;2023-01-29T00:18:51;5.20;;;4.70;;
27113;SDS011;14648;49.730;8.614;2023-01-29T00:21:18;8.70;;;5.50;;
27113;SDS011;14648;49.730;8.614;2023-01-29T00:23:49;6.40;;;5.20;;
27113;SDS011;14648;49.730;8.614;2023-01-29T00:26:15;6.30;;;5.00;;
27113;SDS011;14648;49.730;8.614;2023-01-29T00:28:43;8.30;;;4.93;;
27113;SDS011;14648;49.730;8.614;2023-01-29T00:31:13;9.67;;;5.57;;
27113;SDS011;14648;49.730;8.614;2023-01-29T00:33:41;6.93;;;5.63;;
27113;SDS011;14648;49.730;8.614;2023-01-29T00:36:07;11.90;;;4.67;;
27113;SDS011;14648;49.730;8.614;2023-01-29T00:38:36;7.70;;;5.27;;
27113;SDS011;14648;49.730;8.614;2023-01-29T00:41:06;6.87;;;5.40;;
27113;SDS011;14648;49.730;8.614;2023-01-29T00:43:57;7.10;;;5.07;;
27113;SDS011;14648;49.730;8.614;2023-01-29T00:46:42;6.37;;;5.07;;
27113;SDS011;14648;49.730;8.614;2023-01-29T00:49:08;8.87;;;5.70;;
27113;SDS011;14648;49.730;8.614;2023-01-29T00:51:35;10.40;;;5.33;;
27113;SDS011;14648;49.730;8.614;2023-01-29T00:54:03;18.70;;;7.50;;
27113;SDS011;14648;49.730;8.614;2023-01-29T00:56:33;9.83;;;5.70;;
27113;SDS011;14648;49.730;8.614;2023-01-29T00:59:00;10.03;;;6.13;;
27113;SDS011;14648;49.730;8.614;2023-01-29T01:01:27;8.00;;;5.40;;
27113;SDS011;14648;49.730;8.614;2023-01-29T01:04:11;8.77;;;5.37;;
27113;SDS011;14648;49.730;8.614;2023-01-29T01:06:39;9.87;;;5.77;;
27113;SDS011;14648;49.730;8.614;2023-01-29T01:09:06;8.53;;;5.67;;
27113;SDS011;14648;49.730;8.614;2023-01-29T01:11:52;7.10;;;5.43;;
27113;SDS011;14648;49.730;8.614;2023-01-29T01:14:18;8.57;;;4.77;;
27113;SDS011;14648;49.730;8.614;2023-01-29T01:16:44;8.00;;;5.00;;
27113;SDS011;14648;49.730;8.614;2023-01-29T01:19:12;12.20;;;5.30;;
27113;SDS011;14648;49.730;8.614;2023-01-29T01:21:39;11.13;;;8.03;;
27113;SDS011;14648;49.730;8.614;2023-01-29T01:24:09;7.60;;;5.20;;
27113;SDS011;14648;49.730;8.614;2023-01-29T01:26:36;12.10;;;5.37;;
27113;SDS011;14648;49.730;8.614;2023-01-29T01:29:01;11.33;;;5.80;;
27113;SDS011;14648;49.730;8.614;2023-01-29T01:31:27;10.00;;;6.37;;
27113;SDS011;14648;49.730;8.614;2023-01-29T01:33:53;6.83;;;5.40;;
27113;SDS011;14648;49.730;8.614;2023-01-29T01:36:21;11.50;;;5.70;;
27113;SDS011;14648;49.730;8.614;2023-01-29T01:38:47;8.00;;;5.40;;
27113;SDS011;14648;49.730;8.614;2023-01-29T01:41:14;8.03;;;5.70;;
27113;SDS011;14648;49.730;8.614;2023-01-29T01:43:59;5.40;;;4.87;;
27113;SDS011;14648;49.730;8.614;2023-01-29T01:46:27;6.83;;;5.50;;
27113;SDS011;14648;49.730;8.614;2023-01-29T01:51:36;11.87;;;5.53;;
27113;SDS011;14648;49.730;8.614;2023-01-29T01:54:11;9.03;;;5.53;;
27113;SDS011;14648;49.730;8.614;2023-01-29T01:56:45;9.30;;;5.13;;
27113;SDS011;14648;49.730;8.614;2023-01-29T01:59:20;8.47;;;4.50;;
27113;SDS011;14648;49.730;8.614;2023-01-29T02:01:48;7.40;;;5.00;;
27113;SDS011;14648;49.730;8.614;2023-01-29T02:04:21;8.27;;;6.23;;
27113;SDS011;14648;49.730;8.614;2023-01-29T02:07:09;7.97;;;5.77;;
27113;SDS011;14648;49.730;8.614;2023-01-29T02:12:35;8.57;;;6.17;;
27113;SDS011;14648;49.730;8.614;2023-01-29T02:15:02;8.63;;;6.50;;
27113;SDS011;14648;49.730;8.614;2023-01-29T02:17:30;7.73;;;5.00;;
27113;SDS011;14648;49.730;8.614;2023-01-29T02:28:38;17.73;;;7.47;;
27113;SDS011;14648;49.730;8.614;2023-01-29T02:31:45;11.80;;;5.57;;
27113;SDS011;14648;49.730;8.614;2023-01-29T02:38:10;10.00;;;6.30;;
27113;SDS011;14648;49.730;8.614;2023-01-29T02:40:54;7.73;;;5.20;;
27113;SDS011;14648;49.730;8.614;2023-01-29T02:46:56;9.60;;;5.17;;
27113;SDS011;14648;49.730;8.614;2023-01-29T02:49:47;7.77;;;5.87;;
27113;SDS011;14648;49.730;8.614;2023-01-29T02:52:31;7.10;;;5.10;;
27113;SDS011;14648;49.730;8.614;2023-01-29T02:55:12;10.07;;;5.77;;
27113;SDS011;14648;49.730;8.614;2023-01-29T02:57:46;5.93;;;5.00;;
27113;SDS011;14648;49.730;8.614;2023-01-29T03:00:19;8.03;;;5.20;;
27113;SDS011;14648;49.730;8.614;2023-01-29T03:03:01;9.10;;;5.57;;
27113;SDS011;14648;49.730;8.614;2023-01-29T03:11:12;8.20;;;5.83;;
27113;SDS011;14648;49.730;8.614;2023-01-29T03:13:41;8.73;;;6.13;;
27113;SDS011;14648;49.730;8.614;2023-01-29T03:22:03;8.80;;;4.67;;
27113;SDS011;14648;49.730;8.614;2023-01-29T03:24:39;7.53;;;5.83;;
27113;SDS011;14648;49.730;8.614;2023-01-29T03:27:30;7.77;;;4.80;;
27113;SDS011;14648;49.730;8.614;2023-01-29T03:30:23;6.80;;;5.40;;
27113;SDS011;14648;49.730;8.614;2023-01-29T03:33:11;6.73;;;4.93;;
27113;SDS011;14648;49.730;8.614;2023-01-29T03:35:43;7.40;;;4.80;;
27113;SDS011;14648;49.730;8.614;2023-01-29T03:38:20;9.00;;;5.80;;
27113;SDS011;14648;49.730;8.614;2023-01-29T03:40:55;10.80;;;6.10;;
27113;SDS011;14648;49.730;8.614;2023-01-29T03:52:26;10.50;;;6.27;;
27113;SDS011;14648;49.730;8.614;2023-01-29T03:55:21;8.43;;;5.90;;
27113;SDS011;14648;49.730;8.614;2023-01-29T03:58:04;10.90;;;5.77;;
27113;SDS011;14648;49.730;8.614;2023-01-29T04:00:44;11.53;;;5.83;;
27113;SDS011;14648;49.730;8.614;2023-01-29T04:03:31;19.30;;;8.10;;
27113;SDS011;14648;49.730;8.614;2023-01-29T04:06:15;14.13;;;6.77;;
27113;SDS011;14648;49.730;8.614;2023-01-29T04:08:57;10.87;;;6.50;;
27113;SDS011;14648;49.730;8.614;2023-01-29T04:11:30;9.60;;;6.37;;
27113;SDS011;14648;49.730;8.614;2023-01-29T04:14:00;9.50;;;6.30;;
27113;SDS011;14648;49.730;8.614;2023-01-29T04:16:27;10.83;;;6.37;;
27113;SDS011;14648;49.730;8.614;2023-01-29T04:19:01;11.33;;;5.60;;
27113;SDS011;14648;49.730;8.614;2023-01-29T04:21:29;14.03;;;6.97;;
27113;SDS011;14648;49.730;8.614;2023-01-29T04:23:56;10.00;;;6.93;;
27113;SDS011;14648;49.730;8.614;2023-01-29T04:29:15;15.50;;;7.80;;
27113;SDS011;14648;49.730;8.614;2023-01-29T04:35:05;11.00;;;7.70;;
27113;SDS011;14648;49.730;8.614;2023-01-29T04:40:41;14.07;;;8.00;;
27113;SDS011;14648;49.730;8.614;2023-01-29T04:46:23;11.70;;;7.03;;
27113;SDS011;14648;49.730;8.614;2023-01-29T04:49:15;8.90;;;6.50;;
27113;SDS011;14648;49.730;8.614;2023-01-29T04:54:44;8.70;;;6.10;;
27113;SDS011;14648;49.730;8.614;2023-01-29T04:57:34;11.00;;;7.10;;
27113;SDS011;14648;49.730;8.614;2023-01-29T05:00:22;11.90;;;6.27;;
27113;SDS011;14648;49.730;8.614;2023-01-29T05:03:05;9.07;;;6.97;;
27113;SDS011;14648;49.730;8.614;2023-01-29T05:05:33;9.67;;;6.20;;
27113;SDS011;14648;49.730;8.614;2023-01-29T05:08:00;7.77;;;5.90;;
27113;SDS011;14648;49.730;8.614;2023-01-29T05:10:28;9.90;;;5.67;;
27113;SDS011;14648;49.730;8.614;2023-01-29T05:12:57;7.90;;;5.47;;
27113;SDS011;14648;49.730;8.614;2023-01-29T05:15:41;10.07;;;6.03;;
27113;SDS011;14648;49.730;8.614;2023-01-29T05:18:12;11.30;;;6.83;;
27113;SDS011;14648;49.730;8.614;2023-01-29T05:20:39;12.07;;;6.37;;
27113;SDS011;14648;49.730;8.614;2023-01-29T05:23:08;20.33;;;7.10;;
27113;SDS011;14648;49.730;8.614;2023-01-29T05:25:39;12.23;;;7.27;;
27113;SDS011;14648;49.730;8.614;2023-01-29T05:28:05;15.70;;;7.60;;
27113;SDS011;14648;49.730;8.614;2023-01-29T05:30:34;15.07;;;7.10;;
27113;SDS011;14648;49.730;8.614;2023-01-29T05:33:02;12.47;;;7.00;;
27113;SDS011;14648;49.730;8.614;2023-01-29T05:35:29;17.30;;;7.10;;
27113;SDS011;14648;49.730;8.614;2023-01-29T05:37:55;14.00;;;7.23;;
27113;SDS011;14648;49.730;8.614;2023-01-29T05:40:21;11.87;;;6.97;;
27113;SDS011;14648;49.730;8.614;2023-01-29T05:42:48;11.27;;;7.33;;
27113;SDS011;14648;49.730;8.614;2023-01-29T05:45:15;10.63;;;6.30;;
27113;SDS011;14648;49.730;8.614;2023-01-29T05:47:44;7.53;;;5.43;;
27113;SDS011;14648;49.730;8.614;2023-01-29T05:50:10;10.70;;;6.20;;
27113;SDS011;14648;49.730;8.614;2023-01-29T05:52:37;9.67;;;6.27;;
27113;SDS011;14648;49.730;8.614;2023-01-29T05:55:03;9.43;;;6.40;;
27113;SDS011;14648;49.730;8.614;2023-01-29T05:57:30;10.97;;;6.10;;
27113;SDS011;14648;49.730;8.614;2023-01-29T06:00:00;11.00;;;6.53;;
27113;SDS011;14648;49.730;8.614;2023-01-29T06:02:28;9.60;;;6.10;;
27113;SDS011;14648;49.730;8.614;2023-01-29T06:04:55;9.77;;;5.83;;
27113;SDS011;14648;49.730;8.614;2023-01-29T06:07:21;8.60;;;4.77;;
27113;SDS011;14648;49.730;8.614;2023-01-29T06:09:48;8.10;;;5.80;;
27113;SDS011;14648;49.730;8.614;2023-01-29T06:12:13;9.43;;;5.97;;
27113;SDS011;14648;49.730;8.614;2023-01-29T06:14:40;12.40;;;6.30;;
27113;SDS011;14648;49.730;8.614;2023-01-29T06:17:06;10.27;;;5.67;;
27113;SDS011;14648;49.730;8.614;2023-01-29T06:19:32;9.23;;;6.13;;
27113;SDS011;14648;49.730;8.614;2023-01-29T06:21:58;12.40;;;7.27;;
27113;SDS011;14648;49.730;8.614;2023-01-29T06:24:24;17.03;;;7.07;;
27113;SDS011;14648;49.730;8.614;2023-01-29T06:26:49;11.07;;;7.50;;
27113;SDS011;14648;49.730;8.614;2023-01-29T06:29:15;8.07;;;6.03;;
27113;SDS011;14648;49.730;8.614;2023-01-29T06:31:41;8.67;;;5.70;;
27113;SDS011;14648;49.730;8.614;2023-01-29T06:34:07;9.37;;;5.83;;
27113;SDS011;14648;49.730;8.614;2023-01-29T06:36:33;9.47;;;6.43;;
27113;SDS011;14648;49.730;8.614;2023-01-29T06:39:00;8.03;;;5.43;;
27113;SDS011;14648;49.730;8.614;2023-01-29T06:41:26;8.57;;;5.97;;
27113;SDS011;14648;49.730;8.614;2023-01-29T06:43:52;9.30;;;5.90;;
27113;SDS011;14648;49.730;8.614;2023-01-29T06:46:18;9.63;;;6.20;;
27113;SDS011;14648;49.730;8.614;2023-01-29T06:48:44;9.50;;;6.40;;
27113;SDS011;14648;49.730;8.614;2023-01-29T06:51:10;9.50;;;6.80;;
27113;SDS011;14648;49.730;8.614;2023-01-29T06:53:37;9.30;;;6.80;;
27113;SDS011;14648;49.730;8.614;2023-01-29T06:56:04;14.07;;;7.17;;
27113;SDS011;14648;49.730;8.614;2023-01-29T06:58:32;12.83;;;8.20;;
27113;SDS011;14648;49.730;8.614;2023-01-29T07:01:04;13.40;;;7.10;;
27113;SDS011;14648;49.730;8.614;2023-01-29T07:03:32;15.83;;;8.37;;
27113;SDS011;14648;49.730;8.614;2023-01-29T07:05:58;14.93;;;7.10;;
27113;SDS011;14648;49.730;8.614;2023-01-29T07:08:24;12.80;;;7.30;;
27113;SDS011;14648;49.730;8.614;2023-01-29T07:10:52;16.23;;;8.40;;
27113;SDS011;14648;49.730;8.614;2023-01-29T07:13:20;18.17;;;8.43;;
27113;SDS011;14648;49.730;8.614;2023-01-29T07:15:45;13.27;;;7.80;;
27113;SDS011;14648;49.730;8.614;2023-01-29T07:18:11;13.50;;;7.10;;
27113;SDS011;14648;49.730;8.614;2023-01-29T07:20:40;13.50;;;7.80;;
27113;SDS011;14648;49.730;8.614;2023-01-29T07:23:10;12.83;;;8.00;;
27113;SDS011;14648;49.730;8.614;2023-01-29T07:25:37;13.00;;;7.67;;
27113;SDS011;14648;49.730;8.614;2023-01-29T07:28:04;11.57;;;6.97;;
27113;SDS011;14648;49.730;8.614;2023-01-29T07:30:32;12.53;;;7.87;;
27113;SDS011;14648;49.730;8.614;2023-01-29T07:33:06;13.73;;;8.50;;
27113;SDS011;14648;49.730;8.614;2023-01-29T07:35:37;11.50;;;7.33;;
27113;SDS011;14648;49.730;8.614;2023-01-29T07:38:08;15.00;;;8.07;;
27113;SDS011;14648;49.730;8.614;2023-01-29T07:40:35;10.87;;;7.53;;
27113;SDS011;14648;49.730;8.614;2023-01-29T07:43:02;13.17;;;8.40;;
27113;SDS011;14648;49.730;8.614;2023-01-29T07:45:32;13.63;;;7.10;;
27113;SDS011;14648;49.730;8.614;2023-01-29T07:48:01;13.20;;;8.27;;
27113;SDS011;14648;49.730;8.614;2023-01-29T07:50:29;12.87;;;7.50;;
27113;SDS011;14648;49.730;8.614;2023-01-29T07:52:56;19.30;;;8.97;;
27113;SDS011;14648;49.730;8.614;2023-01-29T07:55:23;20.40;;;9.20;;
27113;SDS011;14648;49.730;8.614;2023-01-29T07:57:56;17.80;;;9.30;;
27113;SDS011;14648;49.730;8.614;2023-01-29T08:00:27;25.37;;;10.73;;
27113;SDS011;14648;49.730;8.614;2023-01-29T08:02:56;15.00;;;9.10;;
27113;SDS011;14648;49.730;8.614;2023-01-29T08:05:28;13.30;;;9.30;;
27113;SDS011;14648;49.730;8.614;2023-01-29T08:07:54;16.30;;;9.50;;
27113;SDS011;14648;49.730;8.614;2023-01-29T08:10:20;14.60;;;8.90;;
27113;SDS011;14648;49.730;8.614;2023-01-29T08:12:45;11.70;;;7.60;;
27113;SDS011;14648;49.730;8.614;2023-01-29T08:15:12;16.30;;;8.50;;
27113;SDS011;14648;49.730;8.614;2023-01-29T08:17:38;19.53;;;8.83;;
27113;SDS011;14648;49.730;8.614;2023-01-29T08:20:05;12.93;;;8.20;;
27113;SDS011;14648;49.730;8.614;2023-01-29T08:22:33;17.67;;;8.30;;
27113;SDS011;14648;49.730;8.614;2023-01-29T08:24:59;13.83;;;7.70;;
27113;SDS011;14648;49.730;8.614;2023-01-29T08:27:30;17.20;;;9.90;;
27113;SDS011;14648;49.730;8.614;2023-01-29T08:29:57;16.10;;;7.27;;
27113;SDS011;14648;49.730;8.614;2023-01-29T08:32:23;17.13;;;8.53;;
27113;SDS011;14648;49.730;8.614;2023-01-29T08:34:51;15.63;;;8.27;;
27113;SDS011;14648;49.730;8.614;2023-01-29T08:39:46;14.57;;;7.63;;
27113;SDS011;14648;49.730;8.614;2023-01-29T08:42:13;10.17;;;6.20;;
27113;SDS011;14648;49.730;8.614;2023-01-29T08:44:39;7.87;;;5.50;;
27113;SDS011;14648;49.730;8.614;2023-01-29T08:47:04;12.13;;;7.80;;
27113;SDS011;14648;49.730;8.614;2023-01-29T08:49:30;7.57;;;5.70;;
27113;SDS011;14648;49.730;8.614;2023-01-29T08:51:56;8.60;;;5.73;;
27113;SDS011;14648;49.730;8.614;2023-01-29T08:54:22;7.87;;;6.20;;
27113;SDS011;14648;49.730;8.614;2023-01-29T08:56:48;8.37;;;6.47;;
27113;SDS011;14648;49.730;8.614;2023-01-29T08:59:15;16.77;;;7.50;;
27113;SDS011;14648;49.730;8.614;2023-01-29T09:01:44;9.30;;;7.03;;
27113;SDS011;14648;49.730;8.614;2023-01-29T09:04:10;9.80;;;6.60;;
27113;SDS011;14648;49.730;8.614;2023-01-29T09:06:36;9.47;;;6.40;;
27113;SDS011;14648;49.730;8.614;2023-01-29T09:09:01;12.23;;;6.87;;
27113;SDS011;14648;49.730;8.614;2023-01-29T09:11:27;24.60;;;11.30;;
27113;SDS011;14648;49.730;8.614;2023-01-29T09:13:53;14.37;;;7.13;;
27113;SDS011;14648;49.730;8.614;2023-01-29T09:16:19;10.83;;;7.23;;
27113;SDS011;14648;49.730;8.614;2023-01-29T09:18:45;11.43;;;7.23;;
27113;SDS011;14648;49.730;8.614;2023-01-29T09:21:11;14.30;;;8.03;;
27113;SDS011;14648;49.730;8.614;2023-01-29T09:23:36;9.80;;;6.20;;
27113;SDS011;14648;49.730;8.614;2023-01-29T09:26:02;12.10;;;7.13;;
27113;SDS011;14648;49.730;8.614;2023-01-29T09:28:28;11.53;;;6.37;;
27113;SDS011;14648;49.730;8.614;2023-01-29T09:30:55;7.10;;;5.70;;
27113;SDS011;14648;49.730;8.614;2023-01-29T09:33:20;11.87;;;6.50;;
27113;SDS011;14648;49.730;8.614;2023-01-29T09:35:48;10.20;;;6.13;;
27113;SDS011;14648;49.730;8.614;2023-01-29T09:38:14;8.47;;;6.63;;
27113;SDS011;14648;49.730;8.614;2023-01-29T09:40:43;6.60;;;5.43;;
27113;SDS011;14648;49.730;8.614;2023-01-29T09:43:38;11.90;;;6.50;;
27113;SDS011;14648;49.730;8.614;2023-01-29T09:46:26;14.27;;;6.30;;
27113;SDS011;14648;49.730;8.614;2023-01-29T09:49:10;13.70;;;7.60;;
27113;SDS011;14648;49.730;8.614;2023-01-29T09:51:54;13.10;;;8.00;;
27113;SDS011;14648;49.730;8.614;2023-01-29T09:54:31;11.40;;;6.87;;
27113;SDS011;14648;49.730;8.614;2023-01-29T09:57:09;8.83;;;7.80;;
27113;SDS011;14648;49.730;8.614;2023-01-29T09:59:45;10.67;;;7.67;;
27113;SDS011;14648;49.730;8.614;2023-01-29T10:05:49;9.87;;;7.20;;
27113;SDS011;14648;49.730;8.614;2023-01-29T10:08:48;9.60;;;6.57;;
27113;SDS011;14648;49.730;8.614;2023-01-29T10:11:58;10.40;;;6.90;;
27113;SDS011;14648;49.730;8.614;2023-01-29T10:14:40;8.90;;;6.13;;
27113;SDS011;14648;49.730;8.614;2023-01-29T10:25:56;18.20;;;9.97;;
27113;SDS011;14648;49.730;8.614;2023-01-29T10:28:32;13.20;;;7.90;;
27113;SDS011;14648;49.730;8.614;2023-01-29T10:31:19;13.90;;;7.03;;
27113;SDS011;14648;49.730;8.614;2023-01-29T10:33:59;8.90;;;6.80;;
27113;SDS011;14648;49.730;8.614;2023-01-29T10:36:45;12.50;;;7.07;;
27113;SDS011;14648;49.730;8.614;2023-01-29T10:39:16;10.47;;;6.83;;
27113;SDS011;14648;49.730;8.614;2023-01-29T10:41:47;13.77;;;7.57;;
27113;SDS011;14648;49.730;8.614;2023-01-29T10:58:31;8.43;;;6.50;;
27113;SDS011;14648;49.730;8.614;2023-01-29T11:01:01;9.17;;;7.27;;
27113;SDS011;14648;49.730;8.614;2023-01-29T11:03:30;11.60;;;7.57;;
27113;SDS011;14648;49.730;8.614;2023-01-29T11:06:00;8.87;;;6.77;;
27113;SDS011;14648;49.730;8.614;2023-01-29T11:08:43;10.23;;;6.57;;
27113;SDS011;14648;49.730;8.614;2023-01-29T11:11:51;10.30;;;6.73;;
27113;SDS011;14648;49.730;8.614;2023-01-29T11:14:24;8.40;;;6.90;;
27113;SDS011;14648;49.730;8.614;2023-01-29T11:16:56;8.60;;;6.53;;
27113;SDS011;14648;49.730;8.614;2023-01-29T11:19:34;12.83;;;7.63;;
27113;SDS011;14648;49.730;8.614;2023-01-29T11:22:10;8.03;;;6.80;;
27113;SDS011;14648;49.730;8.614;2023-01-29T11:24:44;8.97;;;6.70;;
27113;SDS011;14648;49.730;8.614;2023-01-29T11:29:50;9.93;;;6.80;;
27113;SDS011;14648;49.730;8.614;2023-01-29T11:35:00;8.63;;;6.13;;
27113;SDS011;14648;49.730;8.614;2023-01-29T11:37:45;14.03;;;7.20;;
27113;SDS011;14648;49.730;8.614;2023-01-29T11:40:27;10.03;;;7.27;;
27113;SDS011;14648;49.730;8.614;2023-01-29T11:43:12;8.43;;;6.87;;
27113;SDS011;14648;49.730;8.614;2023-01-29T11:45:47;11.10;;;7.33;;
27113;SDS011;14648;49.730;8.614;2023-01-29T11:48:17;9.53;;;7.37;;
27113;SDS011;14648;49.730;8.614;2023-01-29T11:50:56;9.63;;;7.07;;
27113;SDS011;14648;49.730;8.614;2023-01-29T11:56:38;11.93;;;7.50;;
27113;SDS011;14648;49.730;8.614;2023-01-29T11:59:17;12.83;;;6.70;;
27113;SDS011;14648;49.730;8.614;2023-01-29T12:04:58;10.70;;;7.87;;
27113;SDS011;14648;49.730;8.614;2023-01-29T12:07:31;9.57;;;6.90;;
27113;SDS011;14648;49.730;8.614;2023-01-29T12:09:58;15.20;;;6.30;;
27113;SDS011;14648;49.730;8.614;2023-01-29T12:12:37;10.17;;;7.27;;
27113;SDS011;14648;49.730;8.614;2023-01-29T12:18:14;8.83;;;7.10;;
27113;SDS011;14648;49.730;8.614;2023-01-29T12:20:54;9.70;;;7.03;;
27113;SDS011;14648;49.730;8.614;2023-01-29T12:23:46;9.30;;;6.83;;
27113;SDS011;14648;49.730;8.614;2023-01-29T12:32:35;11.20;;;7.60;;
27113;SDS011;14648;49.730;8.614;2023-01-29T12:35:45;13.83;;;7.90;;
27113;SDS011;14648;49.730;8.614;2023-01-29T12:38:20;9.23;;;6.93;;
27113;SDS011;14648;49.730;8.614;2023-01-29T12:40:49;10.40;;;7.10;;
27113;SDS011;14648;49.730;8.614;2023-01-29T12:43:27;11.67;;;7.90;;
27113;SDS011;14648;49.730;8.614;2023-01-29T12:46:03;12.23;;;8.10;;
27113;SDS011;14648;49.730;8.614;2023-01-29T12:48:38;8.53;;;6.73;;
27113;SDS011;14648;49.730;8.614;2023-01-29T12:51:09;9.90;;;7.30;;
27113;SDS011;14648;49.730;8.614;2023-01-29T12:53:49;12.30;;;8.10;;
27113;SDS011;14648;49.730;8.614;2023-01-29T12:56:35;11.30;;;7.30;;
27113;SDS011;14648;49.730;8.614;2023-01-29T13:02:17;10.87;;;8.73;;
27113;SDS011;14648;49.730;8.614;2023-01-29T13:05:14;11.43;;;7.77;;
27113;SDS011;14648;49.730;8.614;2023-01-29T13:07:47;14.07;;;8.80;;
27113;SDS011;14648;49.730;8.614;2023-01-29T13:10:21;15.07;;;9.00;;
27113;SDS011;14648;49.730;8.614;2023-01-29T13:12:56;15.60;;;9.53;;
27113;SDS011;14648;49.730;8.614;2023-01-29T13:15:37;14.10;;;8.67;;
27113;SDS011;14648;49.730;8.614;2023-01-29T13:18:39;14.40;;;9.10;;
27113;SDS011;14648;49.730;8.614;2023-01-29T13:21:03;15.00;;;8.87;;
27113;SDS011;14648;49.730;8.614;2023-01-29T13:23:33;12.60;;;9.23;;
27113;SDS011;14648;49.730;8.614;2023-01-29T13:26:06;16.60;;;9.10;;
27113;SDS011;14648;49.730;8.614;2023-01-29T13:28:34;15.33;;;10.07;;
27113;SDS011;14648;49.730;8.614;2023-01-29T13:33:54;10.63;;;8.43;;
27113;SDS011;14648;49.730;8.614;2023-01-29T13:36:23;16.70;;;8.33;;
27113;SDS011;14648;49.730;8.614;2023-01-29T13:38:54;14.73;;;8.10;;
27113;SDS011;14648;49.730;8.614;2023-01-29T13:41:35;13.90;;;7.90;;
27113;SDS011;14648;49.730;8.614;2023-01-29T13:44:16;12.33;;;8.80;;
27113;SDS011;14648;49.730;8.614;2023-01-29T13:46:56;16.40;;;9.97;;
27113;SDS011;14648;49.730;8.614;2023-01-29T13:49:34;12.50;;;8.30;;
27113;SDS011;14648;49.730;8.614;2023-01-29T13:52:14;9.67;;;8.00;;
27113;SDS011;14648;49.730;8.614;2023-01-29T14:10:25;17.33;;;10.37;;
27113;SDS011;14648;49.730;8.614;2023-01-29T14:15:45;22.97;;;10.93;;
27113;SDS011;14648;49.730;8.614;2023-01-29T14:18:28;15.77;;;10.43;;
27113;SDS011;14648;49.730;8.614;2023-01-29T14:20:57;13.23;;;8.73;;
27113;SDS011;14648;49.730;8.614;2023-01-29T14:26:02;17.67;;;10.07;;
27113;SDS011;14648;49.730;8.614;2023-01-29T14:28:34;20.17;;;12.00;;
27113;SDS011;14648;49.730;8.614;2023-01-29T14:31:01;17.00;;;10.37;;
27113;SDS011;14648;49.730;8.614;2023-01-29T14:33:32;14.07;;;9.67;;
27113;SDS011;14648;49.730;8.614;2023-01-29T14:36:15;14.87;;;9.70;;
27113;SDS011;14648;49.730;8.614;2023-01-29T14:38:45;14.27;;;9.17;;
27113;SDS011;14648;49.730;8.614;2023-01-29T14:41:17;15.13;;;10.27;;
27113;SDS011;14648;49.730;8.614;2023-01-29T14:47:16;20.53;;;11.47;;
27113;SDS011;14648;49.730;8.614;2023-01-29T14:53:20;18.53;;;11.10;;
27113;SDS011;14648;49.730;8.614;2023-01-29T14:58:54;21.60;;;11.20;;
27113;SDS011;14648;49.730;8.614;2023-01-29T15:01:54;14.90;;;9.50;;
27113;SDS011;14648;49.730;8.614;2023-01-29T15:04:37;20.70;;;10.00;;
27113;SDS011;14648;49.730;8.614;2023-01-29T15:16:01;18.40;;;11.43;;
27113;SDS011;14648;49.730;8.614;2023-01-29T15:18:44;18.83;;;10.30;;
27113;SDS011;14648;49.730;8.614;2023-01-29T15:21:16;20.30;;;12.30;;
27113;SDS011;14648;49.730;8.614;2023-01-29T15:23:43;20.50;;;11.60;;
27113;SDS011;14648;49.730;8.614;2023-01-29T15:26:23;17.00;;;10.83;;
27113;SDS011;14648;49.730;8.614;2023-01-29T15:28:55;18.10;;;11.03;;
27113;SDS011;14648;49.730;8.614;2023-01-29T15:31:26;17.90;;;11.40;;
27113;SDS011;14648;49.730;8.614;2023-01-29T15:33:54;20.93;;;12.13;;
27113;SDS011;14648;49.730;8.614;2023-01-29T15:36:27;18.13;;;10.47;;
27113;SDS011;14648;49.730;8.614;2023-01-29T15:41:49;20.10;;;11.70;;
27113;SDS011;14648;49.730;8.614;2023-01-29T15:44:29;18.80;;;10.77;;
27113;SDS011;14648;49.730;8.614;2023-01-29T15:46:55;22.70;;;11.40;;
27113;SDS011;14648;49.730;8.614;2023-01-29T15:49:26;22.53;;;11.03;;
27113;SDS011;14648;49.730;8.614;2023-01-29T15:51:57;18.23;;;11.50;;
27113;SDS011;14648;49.730;8.614;2023-01-29T15:54:29;18.53;;;11.07;;
27113;SDS011;14648;49.730;8.614;2023-01-29T15:56:57;20.77;;;11.93;;
27113;SDS011;14648;49.730;8.614;2023-01-29T15:59:26;22.60;;;12.03;;
27113;SDS011;14648;49.730;8.614;2023-01-29T16:05:10;22.23;;;11.60;;
27113;SDS011;14648;49.730;8.614;2023-01-29T16:07:41;31.20;;;13.53;;
27113;SDS011;14648;49.730;8.614;2023-01-29T16:10:15;23.93;;;12.30;;
27113;SDS011;14648;49.730;8.614;2023-01-29T16:12:52;19.27;;;10.83;;
27113;SDS011;14648;49.730;8.614;2023-01-29T16:18:19;23.93;;;10.97;;
27113;SDS011;14648;49.730;8.614;2023-01-29T16:20:54;21.97;;;12.07;;
27113;SDS011;14648;49.730;8.614;2023-01-29T16:23:24;22.03;;;11.87;;
27113;SDS011;14648;49.730;8.614;2023-01-29T16:25:55;26.20;;;12.40;;
27113;SDS011;14648;49.730;8.614;2023-01-29T16:28:33;23.90;;;11.80;;
27113;SDS011;14648;49.730;8.614;2023-01-29T16:31:05;19.83;;;10.60;;
27113;SDS011;14648;49.730;8.614;2023-01-29T16:33:32;20.50;;;11.10;;
27113;SDS011;14648;49.730;8.614;2023-01-29T16:36:07;22.00;;;10.93;;
27113;SDS011;14648;49.730;8.614;2023-01-29T16:38:46;17.10;;;9.87;;
27113;SDS011;14648;49.730;8.614;2023-01-29T16:43:48;19.10;;;10.50;;
27113;SDS011;14648;49.730;8.614;2023-01-29T16:46:23;18.33;;;8.67;;
27113;SDS011;14648;49.730;8.614;2023-01-29T16:51:54;14.00;;;8.80;;
27113;SDS011;14648;49.730;8.614;2023-01-29T16:54:23;16.73;;;9.47;;
27113;SDS011;14648;49.730;8.614;2023-01-29T16:56:53;20.73;;;9.27;;
27113;SDS011;14648;49.730;8.614;2023-01-29T16:59:34;20.20;;;10.20;;
27113;SDS011;14648;49.730;8.614;2023-01-29T17:02:02;18.97;;;10.03;;
27113;SDS011;14648;49.730;8.614;2023-01-29T17:04:41;14.63;;;8.43;;
27113;SDS011;14648;49.730;8.614;2023-01-29T17:07:11;18.33;;;9.70;;
27113;SDS011;14648;49.730;8.614;2023-01-29T17:09:50;17.13;;;9.13;;
27113;SDS011;14648;49.730;8.614;2023-01-29T17:12:20;17.33;;;8.80;;
27113;SDS011;14648;49.730;8.614;2023-01-29T17:14:58;20.53;;;8.30;;
27113;SDS011;14648;49.730;8.614;2023-01-29T17:17:29;14.43;;;8.77;;
27113;SDS011;14648;49.730;8.614;2023-01-29T17:20:10;17.97;;;10.83;;
27113;SDS011;14648;49.730;8.614;2023-01-29T17:22:40;21.63;;;12.17;;
27113;SDS011;14648;49.730;8.614;2023-01-29T17:25:06;17.87;;;10.37;;
27113;SDS011;14648;49.730;8.614;2023-01-29T17:27:33;18.20;;;11.27;;
27113;SDS011;14648;49.730;8.614;2023-01-29T17:29:59;23.90;;;10.63;;
27113;SDS011;14648;49.730;8.614;2023-01-29T17:32:27;24.90;;;11.07;;
27113;SDS011;14648;49.730;8.614;2023-01-29T17:34:52;15.70;;;9.10;;
27113;SDS011;14648;49.730;8.614;2023-01-29T17:37:18;15.93;;;8.67;;
27113;SDS011;14648;49.730;8.614;2023-01-29T17:39:44;14.27;;;8.10;;
27113;SDS011;14648;49.730;8.614;2023-01-29T17:44:47;13.27;;;7.90;;
27113;SDS011;14648;49.730;8.614;2023-01-29T17:47:13;16.83;;;9.23;;
27113;SDS011;14648;49.730;8.614;2023-01-29T17:49:39;16.83;;;9.30;;
27113;SDS011;14648;49.730;8.614;2023-01-29T17:52:05;12.97;;;8.50;;
27113;SDS011;14648;49.730;8.614;2023-01-29T17:54:31;13.97;;;9.27;;
27113;SDS011;14648;49.730;8.614;2023-01-29T17:56:58;11.97;;;7.53;;
27113;SDS011;14648;49.730;8.614;2023-01-29T17:59:27;14.47;;;8.13;;